sensor_id;sensor_type;location;lat;lon;timestamp;temperature;humidity
4293;DHT22;2160;51.172;6.808;2022-07-06T04:00:53;17.20;99.90
4293;DHT22;2160;51.172;6.808;2022-07-06T04:03:20;17.00;99.90
4293;DHT22;2160;51.172;6.808;2022-07-06T04:05:49;16.90;99.90
4293;DHT22;2160;51.172;6.808;2022-07-06T04:08:16;17.00;99.90
4293;DHT22;2160;51.172;6.808;2022-07-06T04:10:49;17.00;99.90
4293;DHT22;2160;51.172;6.808;2022-07-06T04:13:16;17.10;99.90
4293;DHT22;2160;51.172;6.808;2022-07-06T04:15:43;17.10;99.90
4293;DHT22;2160;51.172;6.808;2022-07-06T04:18:12;17.20;99.90
4293;DHT22;2160;51.172;6.808;2022-07-06T04:20:46;17.30;99.90
4293;DHT22;2160;51.172;6.808;2022-07-06T04:23:13;17.40;99.90
4293;DHT22;2160;51.172;6.808;2022-07-06T04:25:40;17.40;99.90
4293;DHT22;2160;51.172;6.808;2022-07-06T04:28:07;17.50;99.90
4293;DHT22;2160;51.172;6.808;2022-07-06T04:30:36;17.40;99.90
4293;DHT22;2160;51.172;6.808;2022-07-06T04:33:05;17.40;99.90
4293;DHT22;2160;51.172;6.808;2022-07-06T04:35:35;17.40;99.90
4293;DHT22;2160;51.172;6.808;2022-07-06T04:38:02;17.40;99.90
4293;DHT22;2160;51.172;6.808;2022-07-06T04:40:31;17.20;99.90
4293;DHT22;2160;51.172;6.808;2022-07-06T04:43:02;17.20;99.90
4293;DHT22;2160;51.172;6.808;2022-07-06T04:45:30;17.00;99.90
4293;DHT22;2160;51.172;6.808;2022-07-06T04:47:58;17.00;99.90
4293;DHT22;2160;51.172;6.808;2022-07-06T04:50:25;17.10;99.90
4293;DHT22;2160;51.172;6.808;2022-07-06T04:52:57;17.10;99.90
4293;DHT22;2160;51.172;6.808;2022-07-06T04:55:24;17.10;99.90
4293;DHT22;2160;51.172;6.808;2022-07-06T04:57:52;17.20;99.90
4293;DHT22;2160;51.172;6.808;2022-07-06T05:00:20;17.30;99.90
4293;DHT22;2160;51.172;6.808;2022-07-06T05:02:48;17.30;99.90
4293;DHT22;2160;51.172;6.808;2022-07-06T05:05:17;17.30;99.90
4293;DHT22;2160;51.172;6.808;2022-07-06T05:07:45;17.40;99.90
4293;DHT22;2160;51.172;6.808;2022-07-06T05:10:13;17.40;99.90
4293;DHT22;2160;51.172;6.808;2022-07-06T05:12:43;17.40;99.90
4293;DHT22;2160;51.172;6.808;2022-07-06T05:15:12;17.40;99.90
4293;DHT22;2160;51.172;6.808;2022-07-06T05:17:39;17.40;99.90
4293;DHT22;2160;51.172;6.808;2022-07-06T05:20:08;17.40;99.90
4293;DHT22;2160;51.172;6.808;2022-07-06T05:22:39;17.40;99.90
4293;DHT22;2160;51.172;6.808;2022-07-06T05:25:06;17.50;99.90
4293;DHT22;2160;51.172;6.808;2022-07-06T05:27:35;17.60;99.90
4293;DHT22;2160;51.172;6.808;2022-07-06T05:30:03;17.80;99.90
4293;DHT22;2160;51.172;6.808;2022-07-06T05:32:31;17.80;99.90
4293;DHT22;2160;51.172;6.808;2022-07-06T05:34:58;17.80;99.90
4293;DHT22;2160;51.172;6.808;2022-07-06T05:37:25;17.90;99.90
4293;DHT22;2160;51.172;6.808;2022-07-06T05:39:52;18.00;99.90
4293;DHT22;2160;51.172;6.808;2022-07-06T05:42:19;17.90;99.90
4293;DHT22;2160;51.172;6.808;2022-07-06T05:44:48;17.90;99.90
4293;DHT22;2160;51.172;6.808;2022-07-06T05:47:15;17.90;99.90
4293;DHT22;2160;51.172;6.808;2022-07-06T05:49:59;18.00;99.90
4293;DHT22;2160;51.172;6.808;2022-07-06T05:52:41;18.10;99.90
4293;DHT22;2160;51.172;6.808;2022-07-06T05:55:09;17.90;99.90
4293;DHT22;2160;51.172;6.808;2022-07-06T05:57:37;18.00;99.90
4293;DHT22;2160;51.172;6.808;2022-07-06T06:00:11;18.00;99.90
4293;DHT22;2160;51.172;6.808;2022-07-06T06:02:50;18.00;99.90
4293;DHT22;2160;51.172;6.808;2022-07-06T06:05:17;18.10;99.90
4293;DHT22;2160;51.172;6.808;2022-07-06T06:07:46;18.20;99.90
4293;DHT22;2160;51.172;6.808;2022-07-06T06:10:17;18.30;99.90
4293;DHT22;2160;51.172;6.808;2022-07-06T06:12:48;18.30;99.90
4293;DHT22;2160;51.172;6.808;2022-07-06T06:15:17;18.20;99.90
4293;DHT22;2160;51.172;6.808;2022-07-06T06:17:44;18.20;99.90
4293;DHT22;2160;51.172;6.808;2022-07-06T06:20:13;18.10;99.90
4293;DHT22;2160;51.172;6.808;2022-07-06T06:22:48;18.20;99.90
4293;DHT22;2160;51.172;6.808;2022-07-06T06:25:15;18.40;99.90
4293;DHT22;2160;51.172;6.808;2022-07-06T06:27:42;18.40;99.90
4293;DHT22;2160;51.172;6.808;2022-07-06T06:30:10;18.60;99.90
4293;DHT22;2160;51.172;6.808;2022-07-06T06:32:38;18.60;99.90
4293;DHT22;2160;51.172;6.808;2022-07-06T06:35:06;18.50;99.90
4293;DHT22;2160;51.172;6.808;2022-07-06T06:37:33;18.70;99.90
4293;DHT22;2160;51.172;6.808;2022-07-06T06:40:01;19.00;99.90
4293;DHT22;2160;51.172;6.808;2022-07-06T06:42:28;19.10;99.90
4293;DHT22;2160;51.172;6.808;2022-07-06T06:44:56;19.10;99.90
4293;DHT22;2160;51.172;6.808;2022-07-06T06:47:23;19.20;99.90
4293;DHT22;2160;51.172;6.808;2022-07-06T06:49:51;19.20;99.90
4293;DHT22;2160;51.172;6.808;2022-07-06T06:52:18;18.90;99.90
4293;DHT22;2160;51.172;6.808;2022-07-06T06:54:45;18.90;99.90
4293;DHT22;2160;51.172;6.808;2022-07-06T06:57:12;19.00;99.90
4293;DHT22;2160;51.172;6.808;2022-07-06T06:59:39;19.10;99.90
4293;DHT22;2160;51.172;6.808;2022-07-06T07:02:06;18.90;99.90
4293;DHT22;2160;51.172;6.808;2022-07-06T07:04:33;18.80;99.90
4293;DHT22;2160;51.172;6.808;2022-07-06T07:07:02;18.80;99.90
4293;DHT22;2160;51.172;6.808;2022-07-06T07:09:29;18.90;99.90
4293;DHT22;2160;51.172;6.808;2022-07-06T07:11:56;19.00;99.90
4293;DHT22;2160;51.172;6.808;2022-07-06T07:14:23;19.20;99.90
4293;DHT22;2160;51.172;6.808;2022-07-06T07:16:50;19.30;99.90
4293;DHT22;2160;51.172;6.808;2022-07-06T07:19:17;19.30;99.90
4293;DHT22;2160;51.172;6.808;2022-07-06T07:21:44;19.20;99.90
4293;DHT22;2160;51.172;6.808;2022-07-06T07:24:12;19.30;99.90
4293;DHT22;2160;51.172;6.808;2022-07-06T07:26:39;19.30;99.90
4293;DHT22;2160;51.172;6.808;2022-07-06T07:29:06;19.30;99.90
4293;DHT22;2160;51.172;6.808;2022-07-06T07:31:33;19.20;99.90
4293;DHT22;2160;51.172;6.808;2022-07-06T07:34:00;19.30;99.90
4293;DHT22;2160;51.172;6.808;2022-07-06T07:36:27;19.20;99.90
4293;DHT22;2160;51.172;6.808;2022-07-06T07:38:54;19.20;99.90
4293;DHT22;2160;51.172;6.808;2022-07-06T07:41:22;19.40;99.90
4293;DHT22;2160;51.172;6.808;2022-07-06T07:43:49;19.50;99.90
4293;DHT22;2160;51.172;6.808;2022-07-06T07:46:16;19.40;99.90
4293;DHT22;2160;51.172;6.808;2022-07-06T07:48:42;19.40;99.90
4293;DHT22;2160;51.172;6.808;2022-07-06T07:51:10;19.40;99.90
4293;DHT22;2160;51.172;6.808;2022-07-06T07:53:37;19.40;99.90
4293;DHT22;2160;51.172;6.808;2022-07-06T07:56:04;19.50;99.90
4293;DHT22;2160;51.172;6.808;2022-07-06T07:58:33;19.70;99.90
4293;DHT22;2160;51.172;6.808;2022-07-06T08:01:00;19.80;99.90
4293;DHT22;2160;51.172;6.808;2022-07-06T08:03:27;19.90;99.90
4293;DHT22;2160;51.172;6.808;2022-07-06T08:05:54;19.90;99.90
4293;DHT22;2160;51.172;6.808;2022-07-06T08:08:20;20.10;99.90
4293;DHT22;2160;51.172;6.808;2022-07-06T08:10:47;20.10;99.90
4293;DHT22;2160;51.172;6.808;2022-07-06T08:13:14;20.00;99.90
4293;DHT22;2160;51.172;6.808;2022-07-06T08:15:43;20.00;99.90
4293;DHT22;2160;51.172;6.808;2022-07-06T08:18:10;20.10;99.90
4293;DHT22;2160;51.172;6.808;2022-07-06T08:20:37;20.30;99.90
4293;DHT22;2160;51.172;6.808;2022-07-06T08:23:04;20.40;99.90
4293;DHT22;2160;51.172;6.808;2022-07-06T08:25:31;20.60;99.90
4293;DHT22;2160;51.172;6.808;2022-07-06T08:27:58;20.60;99.90
4293;DHT22;2160;51.172;6.808;2022-07-06T08:30:25;20.80;99.90
4293;DHT22;2160;51.172;6.808;2022-07-06T08:32:53;20.80;99.90
4293;DHT22;2160;51.172;6.808;2022-07-06T08:35:20;21.00;99.90
4293;DHT22;2160;51.172;6.808;2022-07-06T08:37:47;20.90;99.90
4293;DHT22;2160;51.172;6.808;2022-07-06T08:40:14;20.70;99.90
4293;DHT22;2160;51.172;6.808;2022-07-06T08:42:42;20.70;99.90
4293;DHT22;2160;51.172;6.808;2022-07-06T08:45:10;21.00;99.50
4293;DHT22;2160;51.172;6.808;2022-07-06T08:47:37;21.10;99.00
4293;DHT22;2160;51.172;6.808;2022-07-06T08:50:07;21.00;98.20
4293;DHT22;2160;51.172;6.808;2022-07-06T08:52:35;21.20;99.20
4293;DHT22;2160;51.172;6.808;2022-07-06T08:55:04;21.10;97.90
4293;DHT22;2160;51.172;6.808;2022-07-06T08:57:31;21.00;97.10
4293;DHT22;2160;51.172;6.808;2022-07-06T08:59:58;20.80;97.90
4293;DHT22;2160;51.172;6.808;2022-07-06T09:02:25;20.60;97.70
4293;DHT22;2160;51.172;6.808;2022-07-06T09:04:54;20.80;97.20
4293;DHT22;2160;51.172;6.808;2022-07-06T09:07:25;20.80;96.70
4293;DHT22;2160;51.172;6.808;2022-07-06T09:09:54;20.90;97.70
4293;DHT22;2160;51.172;6.808;2022-07-06T09:12:21;20.80;96.70
4293;DHT22;2160;51.172;6.808;2022-07-06T09:14:48;20.80;97.50
4293;DHT22;2160;51.172;6.808;2022-07-06T09:17:15;21.00;96.60
4293;DHT22;2160;51.172;6.808;2022-07-06T09:19:45;21.10;95.90
4293;DHT22;2160;51.172;6.808;2022-07-06T09:22:26;21.20;95.60
4293;DHT22;2160;51.172;6.808;2022-07-06T09:24:55;21.30;95.00
4293;DHT22;2160;51.172;6.808;2022-07-06T09:27:27;21.40;96.10
4293;DHT22;2160;51.172;6.808;2022-07-06T09:29:54;21.40;97.20
4293;DHT22;2160;51.172;6.808;2022-07-06T09:32:25;21.20;96.90
4293;DHT22;2160;51.172;6.808;2022-07-06T09:34:52;21.00;94.90
4293;DHT22;2160;51.172;6.808;2022-07-06T09:37:22;21.00;95.90
4293;DHT22;2160;51.172;6.808;2022-07-06T09:39:50;20.90;97.00
4293;DHT22;2160;51.172;6.808;2022-07-06T09:42:24;21.00;96.90
4293;DHT22;2160;51.172;6.808;2022-07-06T09:44:52;21.30;96.00
4293;DHT22;2160;51.172;6.808;2022-07-06T09:47:20;21.30;95.30
4293;DHT22;2160;51.172;6.808;2022-07-06T09:49:46;21.30;94.60
4293;DHT22;2160;51.172;6.808;2022-07-06T09:52:14;21.30;95.50
4293;DHT22;2160;51.172;6.808;2022-07-06T09:54:41;21.50;96.60
4293;DHT22;2160;51.172;6.808;2022-07-06T09:57:09;21.50;96.20
4293;DHT22;2160;51.172;6.808;2022-07-06T09:59:37;21.50;95.10
4293;DHT22;2160;51.172;6.808;2022-07-06T10:02:05;21.70;96.40
4293;DHT22;2160;51.172;6.808;2022-07-06T10:04:32;21.60;95.90
4293;DHT22;2160;51.172;6.808;2022-07-06T10:07:00;21.70;96.10
4293;DHT22;2160;51.172;6.808;2022-07-06T10:09:28;21.80;95.00
4293;DHT22;2160;51.172;6.808;2022-07-06T10:11:59;21.80;94.20
4293;DHT22;2160;51.172;6.808;2022-07-06T10:14:30;21.90;93.80
4293;DHT22;2160;51.172;6.808;2022-07-06T10:16:58;21.90;93.20
4293;DHT22;2160;51.172;6.808;2022-07-06T10:19:26;22.10;92.40
4293;DHT22;2160;51.172;6.808;2022-07-06T10:21:53;22.10;92.30
4293;DHT22;2160;51.172;6.808;2022-07-06T10:24:21;22.30;90.80
4293;DHT22;2160;51.172;6.808;2022-07-06T10:26:48;22.40;90.80
4293;DHT22;2160;51.172;6.808;2022-07-06T10:29:15;22.30;88.90
4293;DHT22;2160;51.172;6.808;2022-07-06T10:31:45;22.10;86.30
4293;DHT22;2160;51.172;6.808;2022-07-06T10:34:14;22.40;88.10
4293;DHT22;2160;51.172;6.808;2022-07-06T10:36:43;22.50;84.70
4293;DHT22;2160;51.172;6.808;2022-07-06T10:39:11;22.60;86.80
4293;DHT22;2160;51.172;6.808;2022-07-06T10:41:56;22.60;85.80
4293;DHT22;2160;51.172;6.808;2022-07-06T10:44:24;22.90;85.50
4293;DHT22;2160;51.172;6.808;2022-07-06T10:46:54;23.00;82.80
4293;DHT22;2160;51.172;6.808;2022-07-06T10:49:22;23.10;81.30
4293;DHT22;2160;51.172;6.808;2022-07-06T10:51:49;22.70;79.40
4293;DHT22;2160;51.172;6.808;2022-07-06T10:54:18;22.40;77.60
4293;DHT22;2160;51.172;6.808;2022-07-06T10:56:47;22.40;80.90
4293;DHT22;2160;51.172;6.808;2022-07-06T10:59:15;22.70;80.40
4293;DHT22;2160;51.172;6.808;2022-07-06T11:02:12;23.00;81.20
4293;DHT22;2160;51.172;6.808;2022-07-06T11:04:39;23.40;77.50
4293;DHT22;2160;51.172;6.808;2022-07-06T11:07:07;23.60;78.80
4293;DHT22;2160;51.172;6.808;2022-07-06T11:09:36;23.70;76.20
4293;DHT22;2160;51.172;6.808;2022-07-06T11:12:13;23.90;73.60
4293;DHT22;2160;51.172;6.808;2022-07-06T11:14:41;23.90;73.00
4293;DHT22;2160;51.172;6.808;2022-07-06T11:17:11;24.10;74.60
4293;DHT22;2160;51.172;6.808;2022-07-06T11:19:48;24.20;73.80
4293;DHT22;2160;51.172;6.808;2022-07-06T11:22:16;24.30;73.50
4293;DHT22;2160;51.172;6.808;2022-07-06T11:24:44;24.50;73.60
4293;DHT22;2160;51.172;6.808;2022-07-06T11:27:12;24.30;68.60
4293;DHT22;2160;51.172;6.808;2022-07-06T11:29:39;24.20;68.60
4293;DHT22;2160;51.172;6.808;2022-07-06T11:32:08;24.10;68.60
4293;DHT22;2160;51.172;6.808;2022-07-06T11:34:39;24.20;69.40
4293;DHT22;2160;51.172;6.808;2022-07-06T11:37:08;24.10;71.20
4293;DHT22;2160;51.172;6.808;2022-07-06T11:39:37;23.90;70.00
4293;DHT22;2160;51.172;6.808;2022-07-06T11:42:06;23.50;70.10
4293;DHT22;2160;51.172;6.808;2022-07-06T11:44:33;23.40;69.80
4293;DHT22;2160;51.172;6.808;2022-07-06T11:47:01;23.30;71.80
4293;DHT22;2160;51.172;6.808;2022-07-06T11:49:29;23.40;70.80
4293;DHT22;2160;51.172;6.808;2022-07-06T11:51:58;23.40;73.40
4293;DHT22;2160;51.172;6.808;2022-07-06T11:54:26;23.80;73.70
4293;DHT22;2160;51.172;6.808;2022-07-06T11:56:54;23.90;73.90
4293;DHT22;2160;51.172;6.808;2022-07-06T11:59:23;24.10;72.20
4293;DHT22;2160;51.172;6.808;2022-07-06T12:01:57;24.30;71.80
4293;DHT22;2160;51.172;6.808;2022-07-06T12:04:24;24.40;70.80
4293;DHT22;2160;51.172;6.808;2022-07-06T12:06:52;24.50;69.30
4293;DHT22;2160;51.172;6.808;2022-07-06T12:09:20;24.60;71.00
4293;DHT22;2160;51.172;6.808;2022-07-06T12:11:48;24.60;70.70
4293;DHT22;2160;51.172;6.808;2022-07-06T12:14:16;24.70;70.40
4293;DHT22;2160;51.172;6.808;2022-07-06T12:16:45;24.90;68.00
4293;DHT22;2160;51.172;6.808;2022-07-06T12:19:12;24.60;66.40
4293;DHT22;2160;51.172;6.808;2022-07-06T12:21:44;24.60;67.40
4293;DHT22;2160;51.172;6.808;2022-07-06T12:24:17;24.50;68.90
4293;DHT22;2160;51.172;6.808;2022-07-06T12:26:46;24.60;68.20
4293;DHT22;2160;51.172;6.808;2022-07-06T12:29:13;24.60;69.20
4293;DHT22;2160;51.172;6.808;2022-07-06T12:31:43;24.60;69.20
4293;DHT22;2160;51.172;6.808;2022-07-06T12:34:14;24.50;69.60
4293;DHT22;2160;51.172;6.808;2022-07-06T12:36:46;24.70;68.90
4293;DHT22;2160;51.172;6.808;2022-07-06T12:39:13;24.50;66.50
4293;DHT22;2160;51.172;6.808;2022-07-06T12:41:47;24.40;69.40
4293;DHT22;2160;51.172;6.808;2022-07-06T12:44:16;24.50;69.60
4293;DHT22;2160;51.172;6.808;2022-07-06T12:46:44;24.60;69.70
4293;DHT22;2160;51.172;6.808;2022-07-06T12:49:14;24.80;69.20
4293;DHT22;2160;51.172;6.808;2022-07-06T12:51:52;25.00;71.30
4293;DHT22;2160;51.172;6.808;2022-07-06T12:54:21;25.20;70.20
4293;DHT22;2160;51.172;6.808;2022-07-06T12:57:05;25.10;67.80
4293;DHT22;2160;51.172;6.808;2022-07-06T12:59:35;24.90;68.10
4293;DHT22;2160;51.172;6.808;2022-07-06T13:02:03;24.70;68.90
4293;DHT22;2160;51.172;6.808;2022-07-06T13:04:31;24.90;68.90
4293;DHT22;2160;51.172;6.808;2022-07-06T13:06:59;24.80;68.40
4293;DHT22;2160;51.172;6.808;2022-07-06T13:09:26;24.90;68.60
4293;DHT22;2160;51.172;6.808;2022-07-06T13:11:54;24.80;68.60
4293;DHT22;2160;51.172;6.808;2022-07-06T13:14:22;24.80;69.40
4293;DHT22;2160;51.172;6.808;2022-07-06T13:16:49;24.70;68.80
4293;DHT22;2160;51.172;6.808;2022-07-06T13:19:16;24.60;68.20
4293;DHT22;2160;51.172;6.808;2022-07-06T13:21:43;24.50;69.50
4293;DHT22;2160;51.172;6.808;2022-07-06T13:24:11;24.70;68.50
4293;DHT22;2160;51.172;6.808;2022-07-06T13:26:38;24.80;67.10
4293;DHT22;2160;51.172;6.808;2022-07-06T13:29:06;24.70;70.20
4293;DHT22;2160;51.172;6.808;2022-07-06T13:31:34;24.90;69.00
4293;DHT22;2160;51.172;6.808;2022-07-06T13:34:01;25.00;68.50
4293;DHT22;2160;51.172;6.808;2022-07-06T13:36:28;25.00;66.40
4293;DHT22;2160;51.172;6.808;2022-07-06T13:38:55;25.00;65.70
4293;DHT22;2160;51.172;6.808;2022-07-06T13:41:22;25.10;65.40
4293;DHT22;2160;51.172;6.808;2022-07-06T13:43:49;24.70;64.30
4293;DHT22;2160;51.172;6.808;2022-07-06T13:46:16;24.60;67.20
4293;DHT22;2160;51.172;6.808;2022-07-06T13:48:45;24.60;66.60
4293;DHT22;2160;51.172;6.808;2022-07-06T13:51:12;24.60;66.00
4293;DHT22;2160;51.172;6.808;2022-07-06T13:53:39;24.80;65.90
4293;DHT22;2160;51.172;6.808;2022-07-06T13:56:06;25.00;65.60
4293;DHT22;2160;51.172;6.808;2022-07-06T13:58:34;25.10;63.40
4293;DHT22;2160;51.172;6.808;2022-07-06T14:01:01;25.20;66.10
4293;DHT22;2160;51.172;6.808;2022-07-06T14:03:28;25.50;66.00
4293;DHT22;2160;51.172;6.808;2022-07-06T14:05:58;25.50;63.60
4293;DHT22;2160;51.172;6.808;2022-07-06T14:08:27;25.70;63.20
4293;DHT22;2160;51.172;6.808;2022-07-06T14:10:54;25.60;61.50
4293;DHT22;2160;51.172;6.808;2022-07-06T14:13:22;25.60;61.30
4293;DHT22;2160;51.172;6.808;2022-07-06T14:15:49;25.50;61.30
4293;DHT22;2160;51.172;6.808;2022-07-06T14:18:16;25.50;61.90
4293;DHT22;2160;51.172;6.808;2022-07-06T14:20:44;25.60;61.90
4293;DHT22;2160;51.172;6.808;2022-07-06T14:23:13;25.60;62.10
4293;DHT22;2160;51.172;6.808;2022-07-06T14:25:42;25.60;61.70
4293;DHT22;2160;51.172;6.808;2022-07-06T14:28:10;25.70;62.50
4293;DHT22;2160;51.172;6.808;2022-07-06T14:30:40;25.80;62.60
4293;DHT22;2160;51.172;6.808;2022-07-06T14:33:09;25.60;61.10
4293;DHT22;2160;51.172;6.808;2022-07-06T14:35:37;25.30;60.30
4293;DHT22;2160;51.172;6.808;2022-07-06T14:38:06;25.30;61.20
4293;DHT22;2160;51.172;6.808;2022-07-06T14:40:35;25.50;62.00
4293;DHT22;2160;51.172;6.808;2022-07-06T14:43:03;25.30;62.90
4293;DHT22;2160;51.172;6.808;2022-07-06T14:45:30;25.40;61.90
4293;DHT22;2160;51.172;6.808;2022-07-06T14:47:57;25.60;61.50
4293;DHT22;2160;51.172;6.808;2022-07-06T14:50:24;25.70;62.10
4293;DHT22;2160;51.172;6.808;2022-07-06T14:52:52;25.60;59.50
4293;DHT22;2160;51.172;6.808;2022-07-06T14:55:19;25.50;60.00
4293;DHT22;2160;51.172;6.808;2022-07-06T14:57:48;25.40;59.00
4293;DHT22;2160;51.172;6.808;2022-07-06T15:00:15;25.30;59.80
4293;DHT22;2160;51.172;6.808;2022-07-06T15:02:43;25.40;61.70
4293;DHT22;2160;51.172;6.808;2022-07-06T15:05:10;25.60;60.70
4293;DHT22;2160;51.172;6.808;2022-07-06T15:07:37;25.80;61.20
4293;DHT22;2160;51.172;6.808;2022-07-06T15:10:05;26.00;63.10
4293;DHT22;2160;51.172;6.808;2022-07-06T15:12:32;26.20;61.40
4293;DHT22;2160;51.172;6.808;2022-07-06T15:15:01;26.40;59.40
4293;DHT22;2160;51.172;6.808;2022-07-06T15:17:28;26.40;57.80
4293;DHT22;2160;51.172;6.808;2022-07-06T15:19:57;26.00;57.20
4293;DHT22;2160;51.172;6.808;2022-07-06T15:22:24;25.90;57.80
4293;DHT22;2160;51.172;6.808;2022-07-06T15:24:51;25.90;58.70
4293;DHT22;2160;51.172;6.808;2022-07-06T15:27:18;25.90;58.50
4293;DHT22;2160;51.172;6.808;2022-07-06T15:29:45;25.60;57.20
4293;DHT22;2160;51.172;6.808;2022-07-06T15:32:13;25.50;59.50
4293;DHT22;2160;51.172;6.808;2022-07-06T15:34:40;25.20;59.50
4293;DHT22;2160;51.172;6.808;2022-07-06T15:37:07;25.00;59.30
4293;DHT22;2160;51.172;6.808;2022-07-06T15:39:34;24.90;61.50
4293;DHT22;2160;51.172;6.808;2022-07-06T15:42:01;25.00;61.20
4293;DHT22;2160;51.172;6.808;2022-07-06T15:44:28;25.20;62.80
4293;DHT22;2160;51.172;6.808;2022-07-06T15:46:55;25.40;61.90
4293;DHT22;2160;51.172;6.808;2022-07-06T15:49:23;25.20;60.40
4293;DHT22;2160;51.172;6.808;2022-07-06T15:51:50;25.30;62.90
4293;DHT22;2160;51.172;6.808;2022-07-06T15:54:17;25.50;62.30
4293;DHT22;2160;51.172;6.808;2022-07-06T15:56:44;25.80;61.20
4293;DHT22;2160;51.172;6.808;2022-07-06T15:59:11;26.20;60.80
4293;DHT22;2160;51.172;6.808;2022-07-06T16:01:38;26.20;59.40
4293;DHT22;2160;51.172;6.808;2022-07-06T16:04:05;26.00;59.30
4293;DHT22;2160;51.172;6.808;2022-07-06T16:06:33;25.90;60.50
4293;DHT22;2160;51.172;6.808;2022-07-06T16:09:00;25.70;60.80
4293;DHT22;2160;51.172;6.808;2022-07-06T16:11:27;25.60;60.00
4293;DHT22;2160;51.172;6.808;2022-07-06T16:13:54;25.80;61.30
4293;DHT22;2160;51.172;6.808;2022-07-06T16:16:21;25.90;59.20
4293;DHT22;2160;51.172;6.808;2022-07-06T16:18:48;25.90;59.40
4293;DHT22;2160;51.172;6.808;2022-07-06T16:21:15;26.00;59.20
4293;DHT22;2160;51.172;6.808;2022-07-06T16:23:44;26.10;59.70
4293;DHT22;2160;51.172;6.808;2022-07-06T16:26:11;26.10;59.90
4293;DHT22;2160;51.172;6.808;2022-07-06T16:28:38;26.30;59.90
4293;DHT22;2160;51.172;6.808;2022-07-06T16:31:05;26.20;59.20
4293;DHT22;2160;51.172;6.808;2022-07-06T16:33:33;26.10;58.30
4293;DHT22;2160;51.172;6.808;2022-07-06T16:36:03;25.80;59.00
4293;DHT22;2160;51.172;6.808;2022-07-06T16:38:31;25.70;59.90
4293;DHT22;2160;51.172;6.808;2022-07-06T16:40:59;25.80;60.00
4293;DHT22;2160;51.172;6.808;2022-07-06T16:43:26;25.80;59.80
4293;DHT22;2160;51.172;6.808;2022-07-06T16:45:53;25.50;59.60
4293;DHT22;2160;51.172;6.808;2022-07-06T16:48:20;25.30;59.70
4293;DHT22;2160;51.172;6.808;2022-07-06T16:50:48;25.20;59.70
4293;DHT22;2160;51.172;6.808;2022-07-06T16:53:14;25.40;59.50
4293;DHT22;2160;51.172;6.808;2022-07-06T16:55:42;25.60;59.80
4293;DHT22;2160;51.172;6.808;2022-07-06T16:58:10;25.60;59.90
4293;DHT22;2160;51.172;6.808;2022-07-06T17:00:37;25.70;60.30
4293;DHT22;2160;51.172;6.808;2022-07-06T17:03:04;25.60;59.80
4293;DHT22;2160;51.172;6.808;2022-07-06T17:05:31;25.50;61.10
4293;DHT22;2160;51.172;6.808;2022-07-06T17:07:58;25.60;62.10
4293;DHT22;2160;51.172;6.808;2022-07-06T17:10:25;25.60;61.50
4293;DHT22;2160;51.172;6.808;2022-07-06T17:12:52;25.50;60.20
4293;DHT22;2160;51.172;6.808;2022-07-06T17:15:20;25.40;62.10
4293;DHT22;2160;51.172;6.808;2022-07-06T17:17:47;25.20;61.00
4293;DHT22;2160;51.172;6.808;2022-07-06T17:20:14;25.00;61.00
4293;DHT22;2160;51.172;6.808;2022-07-06T17:22:41;24.80;60.90
4293;DHT22;2160;51.172;6.808;2022-07-06T17:25:08;24.70;62.50
4293;DHT22;2160;51.172;6.808;2022-07-06T17:27:35;24.70;61.40
4293;DHT22;2160;51.172;6.808;2022-07-06T17:30:03;24.80;61.40
4293;DHT22;2160;51.172;6.808;2022-07-06T17:32:31;24.90;62.40
4293;DHT22;2160;51.172;6.808;2022-07-06T17:34:58;25.00;61.70
4293;DHT22;2160;51.172;6.808;2022-07-06T17:37:25;24.90;63.20
4293;DHT22;2160;51.172;6.808;2022-07-06T17:39:52;25.10;63.40
4293;DHT22;2160;51.172;6.808;2022-07-06T17:42:19;25.10;63.20
4293;DHT22;2160;51.172;6.808;2022-07-06T17:44:48;25.20;63.30
4293;DHT22;2160;51.172;6.808;2022-07-06T17:47:15;25.20;62.10
4293;DHT22;2160;51.172;6.808;2022-07-06T17:49:43;24.90;61.40
4293;DHT22;2160;51.172;6.808;2022-07-06T17:52:10;24.70;62.50
4293;DHT22;2160;51.172;6.808;2022-07-06T17:54:41;24.50;64.60
4293;DHT22;2160;51.172;6.808;2022-07-06T17:57:09;24.70;64.00
4293;DHT22;2160;51.172;6.808;2022-07-06T17:59:36;24.70;63.70
4293;DHT22;2160;51.172;6.808;2022-07-06T18:02:03;24.70;63.50
4293;DHT22;2160;51.172;6.808;2022-07-06T18:04:30;24.50;64.20
4293;DHT22;2160;51.172;6.808;2022-07-06T18:06:59;24.50;63.80
4293;DHT22;2160;51.172;6.808;2022-07-06T18:09:26;24.50;63.60
4293;DHT22;2160;51.172;6.808;2022-07-06T18:11:53;24.50;63.90
4293;DHT22;2160;51.172;6.808;2022-07-06T18:14:20;24.40;64.70
4293;DHT22;2160;51.172;6.808;2022-07-06T18:16:47;24.40;65.10
4293;DHT22;2160;51.172;6.808;2022-07-06T18:19:14;24.40;64.70
4293;DHT22;2160;51.172;6.808;2022-07-06T18:21:41;24.40;65.00
4293;DHT22;2160;51.172;6.808;2022-07-06T18:24:12;24.50;64.80
4293;DHT22;2160;51.172;6.808;2022-07-06T18:26:39;24.40;64.40
4293;DHT22;2160;51.172;6.808;2022-07-06T18:29:09;24.10;64.10
4293;DHT22;2160;51.172;6.808;2022-07-06T18:31:36;24.10;65.80
4293;DHT22;2160;51.172;6.808;2022-07-06T18:34:03;23.90;64.00
4293;DHT22;2160;51.172;6.808;2022-07-06T18:36:30;24.10;65.90
4293;DHT22;2160;51.172;6.808;2022-07-06T18:38:57;24.20;66.10
4293;DHT22;2160;51.172;6.808;2022-07-06T18:41:26;24.40;66.20
4293;DHT22;2160;51.172;6.808;2022-07-06T18:43:53;24.30;65.90
4293;DHT22;2160;51.172;6.808;2022-07-06T18:46:20;24.20;67.10
4293;DHT22;2160;51.172;6.808;2022-07-06T18:48:47;24.10;67.90
4293;DHT22;2160;51.172;6.808;2022-07-06T18:51:14;24.10;67.50
4293;DHT22;2160;51.172;6.808;2022-07-06T18:53:41;24.30;68.10
4293;DHT22;2160;51.172;6.808;2022-07-06T18:56:08;24.30;66.80
4293;DHT22;2160;51.172;6.808;2022-07-06T18:58:37;24.20;66.70
4293;DHT22;2160;51.172;6.808;2022-07-06T19:01:04;24.20;66.40
4293;DHT22;2160;51.172;6.808;2022-07-06T19:03:30;24.20;66.60
4293;DHT22;2160;51.172;6.808;2022-07-06T19:05:57;24.20;66.50
4293;DHT22;2160;51.172;6.808;2022-07-06T19:08:24;23.80;66.70
4293;DHT22;2160;51.172;6.808;2022-07-06T19:10:51;23.70;67.80
4293;DHT22;2160;51.172;6.808;2022-07-06T19:13:18;23.90;69.10
4293;DHT22;2160;51.172;6.808;2022-07-06T19:15:46;23.90;68.50
4293;DHT22;2160;51.172;6.808;2022-07-06T19:18:13;23.80;69.00
4293;DHT22;2160;51.172;6.808;2022-07-06T19:20:40;23.90;69.00
4293;DHT22;2160;51.172;6.808;2022-07-06T19:23:07;23.60;69.40
4293;DHT22;2160;51.172;6.808;2022-07-06T19:25:35;23.60;69.40
4293;DHT22;2160;51.172;6.808;2022-07-06T19:28:02;23.60;69.80
4293;DHT22;2160;51.172;6.808;2022-07-06T19:30:29;23.80;69.90
4293;DHT22;2160;51.172;6.808;2022-07-06T19:32:58;24.10;69.90
4293;DHT22;2160;51.172;6.808;2022-07-06T19:35:25;24.10;69.40
4293;DHT22;2160;51.172;6.808;2022-07-06T19:37:52;24.10;69.10
4293;DHT22;2160;51.172;6.808;2022-07-06T19:40:19;23.90;69.50
4293;DHT22;2160;51.172;6.808;2022-07-06T19:42:46;23.70;69.80
4293;DHT22;2160;51.172;6.808;2022-07-06T19:45:13;23.70;69.40
4293;DHT22;2160;51.172;6.808;2022-07-06T19:47:40;23.80;70.40
4293;DHT22;2160;51.172;6.808;2022-07-06T19:50:08;23.70;70.20
4293;DHT22;2160;51.172;6.808;2022-07-06T19:52:35;23.70;70.30
4293;DHT22;2160;51.172;6.808;2022-07-06T19:55:03;23.80;70.50
4293;DHT22;2160;51.172;6.808;2022-07-06T19:57:30;23.90;70.40
4293;DHT22;2160;51.172;6.808;2022-07-06T19:59:57;23.80;70.60
4293;DHT22;2160;51.172;6.808;2022-07-06T20:02:24;23.80;70.70
4293;DHT22;2160;51.172;6.808;2022-07-06T20:04:51;23.70;71.70
4293;DHT22;2160;51.172;6.808;2022-07-06T20:07:20;23.80;72.70